Time;durP1;ratioP1;P1;durP2;ratioP2;P2;SDS_P1;SDS_P2;PMS_P1;PMS_P2;Temp;Humidity;BMP_temperature;BMP_pressure;BME280_temperature;BME280_humidity;BME280_pressure;Samples;Min_cycle;Max_cycle;Signal;HPM_P1;HPM_P2
2022/07/27 00:01:15;;;;;;;382.48;362.42;;;13.40;99.90;;;;;;5072202;28;20131;-60
2022/07/27 00:03:43;;;;;;;409.58;388.75;;;13.30;99.90;;;;;;5061307;28;20087;-60
2022/07/27 00:06:09;;;;;;;438.25;413.63;;;13.30;99.90;;;;;;5072856;28;20538;-60
2022/07/27 00:08:35;;;;;;;370.92;351.40;;;13.30;99.90;;;;;;5054620;28;20123;-60
2022/07/27 00:11:01;;;;;;;410.08;388.45;;;13.30;99.90;;;;;;5055385;28;20079;-60
2022/07/27 00:13:27;;;;;;;406.13;385.00;;;13.30;99.90;;;;;;5071789;28;20048;-60
2022/07/27 00:15:53;;;;;;;488.90;461.10;;;13.30;99.90;;;;;;5052811;28;20037;-60
2022/07/27 00:18:19;;;;;;;434.38;410.48;;;13.50;99.90;;;;;;5052466;28;20086;-60
2022/07/27 00:20:45;;;;;;;352.45;334.45;;;13.60;99.90;;;;;;5051604;28;20487;-60
2022/07/27 00:23:10;;;;;;;355.40;338.23;;;13.60;99.90;;;;;;5052196;28;20052;-60
2022/07/27 00:25:36;;;;;;;348.65;331.08;;;13.70;99.90;;;;;;5068421;28;20040;-60
2022/07/27 00:28:03;;;;;;;452.10;426.63;;;13.70;99.90;;;;;;5034284;28;20541;-60
2022/07/27 00:30:28;;;;;;;389.33;369.42;;;13.70;99.90;;;;;;5050943;28;20127;-60
2022/07/27 00:32:55;;;;;;;476.60;449.02;;;13.70;99.90;;;;;;5052300;28;20081;-60
2022/07/27 00:35:22;;;;;;;383.98;363.30;;;13.60;99.90;;;;;;5052222;28;20074;-60
2022/07/27 00:37:48;;;;;;;423.17;399.30;;;13.60;99.90;;;;;;5034452;28;20045;-60
2022/07/27 00:40:14;;;;;;;471.67;444.60;;;13.60;99.90;;;;;;5063546;28;20044;-60
2022/07/27 00:42:40;;;;;;;519.97;489.00;;;13.50;99.90;;;;;;5079426;28;20052;-60
2022/07/27 00:45:06;;;;;;;480.15;451.30;;;13.40;99.90;;;;;;5092615;28;20478;-60
2022/07/27 00:47:32;;;;;;;444.02;418.67;;;13.30;99.90;;;;;;5092527;28;20585;-60
2022/07/27 00:49:58;;;;;;;487.55;458.95;;;13.30;99.90;;;;;;5072582;28;20135;-60
2022/07/27 00:52:26;;;;;;;453.73;427.65;;;13.30;99.90;;;;;;5054385;28;20045;-60
2022/07/27 00:54:52;;;;;;;543.70;509.40;;;13.30;99.90;;;;;;5072484;28;20498;-60
2022/07/27 00:57:18;;;;;;;474.50;445.98;;;13.20;99.90;;;;;;5077583;28;20070;-60
2022/07/27 00:59:43;;;;;;;495.02;465.77;;;13.20;99.90;;;;;;5092398;28;20050;-60
2022/07/27 01:02:09;;;;;;;478.73;450.73;;;13.20;99.90;;;;;;5092045;28;20432;-60
2022/07/27 01:04:36;;;;;;;508.00;478.05;;;13.20;99.90;;;;;;5071611;28;20052;-60
2022/07/27 01:07:03;;;;;;;469.85;443.15;;;13.20;99.90;;;;;;5071871;28;20098;-60
2022/07/27 01:12:16;;;;;;;473.35;445.73;;;13.00;99.90;;;;;;5072511;28;20127;-60
2022/07/27 01:14:42;;;;;;;479.83;452.88;;;13.00;99.90;;;;;;5071500;28;20033;-60
2022/07/27 01:17:08;;;;;;;514.55;484.45;;;13.00;99.90;;;;;;5071506;28;20083;-60
2022/07/27 01:19:34;;;;;;;452.75;427.80;;;13.00;99.90;;;;;;5072450;28;20379;-60
2022/07/27 01:22:02;;;;;;;495.20;466.35;;;13.00;99.90;;;;;;5071927;28;20088;-60
2022/07/27 01:24:28;;;;;;;495.08;466.80;;;13.10;99.90;;;;;;5071262;28;20562;-60
2022/07/27 01:26:54;;;;;;;526.42;494.77;;;13.10;99.90;;;;;;5072131;28;20124;-60
2022/07/27 01:29:20;;;;;;;531.63;499.92;;;13.10;99.90;;;;;;5071617;28;20045;-60
2022/07/27 01:31:46;;;;;;;471.75;444.90;;;13.10;99.90;;;;;;5071510;28;20627;-60
2022/07/27 01:34:12;;;;;;;431.85;408.17;;;13.10;99.90;;;;;;5077524;28;20494;-60
2022/07/27 01:36:38;;;;;;;406.70;384.77;;;13.10;99.90;;;;;;5071992;28;20438;-60
2022/07/27 01:39:04;;;;;;;464.15;438.90;;;13.10;99.90;;;;;;5071328;28;20063;-60
2022/07/27 01:41:29;;;;;;;490.90;462.42;;;13.00;99.90;;;;;;5059511;28;20193;-60
2022/07/27 01:43:55;;;;;;;457.30;431.85;;;13.10;99.90;;;;;;5091667;28;20117;-60
2022/07/27 01:46:21;;;;;;;487.13;458.52;;;13.00;99.90;;;;;;5094781;28;20044;-60
2022/07/27 01:48:47;;;;;;;507.50;477.58;;;13.00;99.90;;;;;;5096016;28;20083;-60
2022/07/27 01:51:13;;;;;;;454.10;428.55;;;12.90;99.90;;;;;;5081458;28;20086;-60
2022/07/27 01:53:39;;;;;;;524.17;492.25;;;12.90;99.90;;;;;;5074710;28;20048;-60
2022/07/27 01:56:09;;;;;;;510.17;479.13;;;13.00;99.90;;;;;;5057317;28;20056;-60
2022/07/27 01:58:37;;;;;;;406.35;384.17;;;13.00;99.90;;;;;;5074775;28;20478;-60
2022/07/27 02:01:03;;;;;;;441.50;417.30;;;;;;;;;;5074534;28;20044;-60
2022/07/27 02:03:29;;;;;;;478.95;449.98;;;12.80;99.90;;;;;;5075276;28;20040;-60
2022/07/27 02:05:55;;;;;;;449.30;423.63;;;12.70;99.90;;;;;;5074221;28;20087;-60
2022/07/27 02:08:21;;;;;;;413.92;391.50;;;12.60;99.90;;;;;;5074937;28;20072;-60
2022/07/27 02:13:31;;;;;;;428.17;403.75;;;12.60;99.90;;;;;;5074215;28;20387;-60
2022/07/27 02:15:57;;;;;;;432.38;407.80;;;12.50;99.90;;;;;;5074978;28;20106;-60
2022/07/27 02:18:23;;;;;;;512.28;481.20;;;12.60;99.90;;;;;;5092954;28;20051;-60
2022/07/27 02:20:49;;;;;;;493.67;465.38;;;12.60;99.90;;;;;;5094003;28;20051;-60
2022/07/27 02:23:15;;;;;;;411.58;389.55;;;12.60;99.90;;;;;;5094931;28;20048;-60
2022/07/27 02:25:41;;;;;;;399.25;377.27;;;;;;;;;;5089343;28;20048;-60
2022/07/27 02:28:07;;;;;;;427.88;404.00;;;12.40;99.90;;;;;;5073920;28;20043;-60
2022/07/27 02:30:33;;;;;;;476.70;448.65;;;12.40;99.90;;;;;;5074825;28;20101;-60
2022/07/27 02:32:59;;;;;;;464.90;437.25;;;12.40;99.90;;;;;;5074668;28;20303;-60
2022/07/27 02:35:25;;;;;;;389.48;368.00;;;12.40;99.90;;;;;;5073518;28;20098;-60
2022/07/27 02:37:51;;;;;;;477.25;448.60;;;12.40;99.90;;;;;;5074692;28;20036;-60
2022/07/27 02:40:17;;;;;;;472.58;445.10;;;12.40;99.90;;;;;;5074798;28;20126;-60
2022/07/27 02:42:44;;;;;;;472.35;444.27;;;12.50;99.90;;;;;;5073093;28;20393;-60
2022/07/27 02:45:09;;;;;;;442.55;417.58;;;12.60;99.90;;;;;;5054469;28;20526;-60
2022/07/27 02:47:36;;;;;;;452.23;426.67;;;12.60;99.90;;;;;;5054698;28;20122;-60
2022/07/27 02:50:03;;;;;;;412.63;390.10;;;12.70;99.90;;;;;;5070373;28;20057;-60
2022/07/27 02:52:28;;;;;;;469.77;442.52;;;12.70;99.90;;;;;;5075338;28;20045;-60
2022/07/27 02:54:54;;;;;;;541.22;507.88;;;12.70;99.90;;;;;;5073054;28;20068;-59
2022/07/27 02:57:20;;;;;;;432.83;408.90;;;12.70;99.90;;;;;;5068759;28;20067;-60
2022/07/27 02:59:46;;;;;;;472.48;444.33;;;12.80;99.90;;;;;;5073674;28;20502;-60
2022/07/27 03:02:11;;;;;;;353.58;335.77;;;12.80;99.90;;;;;;5086390;28;20036;-60
2022/07/27 03:04:37;;;;;;;492.98;463.35;;;12.80;99.90;;;;;;5073365;28;20090;-60
2022/07/27 03:07:03;;;;;;;468.10;440.38;;;12.80;99.90;;;;;;5073867;28;20047;-60
2022/07/27 03:09:29;;;;;;;439.55;415.02;;;12.70;99.90;;;;;;5074693;28;20048;-59
2022/07/27 03:11:54;;;;;;;410.55;386.92;;;12.70;99.90;;;;;;5094080;28;20043;-60
2022/07/27 03:14:20;;;;;;;350.80;332.02;;;12.60;99.90;;;;;;5093780;28;20055;-60
2022/07/27 03:16:46;;;;;;;405.35;383.50;;;12.60;99.90;;;;;;5073170;28;20037;-60
2022/07/27 03:19:12;;;;;;;365.42;345.75;;;12.50;99.90;;;;;;5082194;28;20164;-60
2022/07/27 03:21:38;;;;;;;381.38;360.98;;;12.60;99.90;;;;;;5093683;28;20645;-60
2022/07/27 03:24:04;;;;;;;430.05;406.17;;;12.50;99.90;;;;;;5093001;28;20146;-60
2022/07/27 03:26:31;;;;;;;418.35;394.63;;;12.50;99.90;;;;;;5094201;28;20131;-59
2022/07/27 03:28:57;;;;;;;439.23;415.30;;;12.40;99.90;;;;;;5093253;28;20055;-60
2022/07/27 03:31:22;;;;;;;452.08;426.92;;;12.30;99.90;;;;;;5079957;28;20045;-60
2022/07/27 03:33:49;;;;;;;507.20;476.50;;;12.20;99.90;;;;;;5073683;28;20497;-60
2022/07/27 03:36:15;;;;;;;489.77;461.08;;;12.10;99.90;;;;;;5076352;28;20075;-60
2022/07/27 03:38:41;;;;;;;430.33;407.67;;;12.00;99.90;;;;;;5093192;28;20129;-60
2022/07/27 03:41:06;;;;;;;470.80;444.08;;;12.00;99.90;;;;;;5087899;28;20572;-59
2022/07/27 03:43:33;;;;;;;431.17;408.27;;;11.90;99.90;;;;;;5071845;28;20449;-60
2022/07/27 03:45:59;;;;;;;397.08;376.10;;;11.80;99.90;;;;;;5083051;28;20418;-59
2022/07/27 03:48:26;;;;;;;442.27;417.55;;;11.80;99.90;;;;;;5093559;28;20048;-60
2022/07/27 03:50:52;;;;;;;498.13;469.52;;;11.80;99.90;;;;;;5092934;28;20058;-60
2022/07/27 03:53:20;;;;;;;403.95;383.05;;;11.80;99.90;;;;;;5092853;28;20040;-60
2022/07/27 03:55:48;;;;;;;396.83;375.80;;;11.90;99.90;;;;;;5074274;28;20048;-60
2022/07/27 03:58:14;;;;;;;373.75;354.27;;;11.90;99.90;;;;;;5054942;28;20398;-60
2022/07/27 04:00:40;;;;;;;392.65;371.08;;;11.90;99.90;;;;;;5072846;28;20052;-60
2022/07/27 04:03:06;;;;;;;476.52;449.35;;;11.90;99.90;;;;;;5070408;28;20044;-60
2022/07/27 04:05:32;;;;;;;461.95;436.38;;;11.90;99.90;;;;;;5071953;28;20049;-59
2022/07/27 04:07:57;;;;;;;499.05;468.83;;;11.90;99.90;;;;;;5072804;28;20103;-60
2022/07/27 04:10:24;;;;;;;433.50;408.55;;;11.80;99.90;;;;;;5073046;28;20110;-60
2022/07/27 04:12:49;;;;;;;517.60;486.05;;;11.70;99.90;;;;;;5071645;28;20079;-59
2022/07/27 04:15:17;;;;;;;436.02;412.60;;;11.70;99.90;;;;;;5072747;28;20080;-60
2022/07/27 04:17:45;;;;;;;453.02;428.02;;;;;;;;;;5072767;28;20064;-60
2022/07/27 04:20:11;;;;;;;377.25;357.17;;;11.60;99.90;;;;;;5070871;28;20080;-60
2022/07/27 04:22:37;;;;;;;524.10;491.85;;;11.60;99.90;;;;;;5072826;28;20041;-59
2022/07/27 04:25:03;;;;;;;437.75;412.20;;;11.60;99.90;;;;;;5072799;28;20044;-59
2022/07/27 04:27:28;;;;;;;386.30;365.38;;;11.60;99.90;;;;;;5071736;28;20120;-60
2022/07/27 04:29:54;;;;;;;407.60;385.50;;;11.60;99.90;;;;;;5072782;28;20457;-59
2022/07/27 04:32:20;;;;;;;474.55;447.30;;;11.50;99.90;;;;;;5072939;28;20095;-59
2022/07/27 04:34:46;;;;;;;389.15;368.45;;;11.50;99.90;;;;;;5071127;28;20410;-60
2022/07/27 04:37:11;;;;;;;507.15;476.70;;;11.50;99.90;;;;;;5072555;28;20052;-60
2022/07/27 04:39:37;;;;;;;464.23;437.80;;;11.50;99.90;;;;;;5087827;28;20097;-60
2022/07/27 04:42:03;;;;;;;438.40;413.38;;;11.60;99.90;;;;;;5091258;28;20048;-60
2022/07/27 04:44:29;;;;;;;456.67;431.23;;;11.70;99.90;;;;;;5074568;28;20379;-60
2022/07/27 04:46:55;;;;;;;401.60;379.65;;;11.70;99.90;;;;;;5092148;28;20096;-60
2022/07/27 04:49:20;;;;;;;453.25;428.10;;;11.80;99.90;;;;;;5091304;28;20555;-60
2022/07/27 04:51:46;;;;;;;459.40;434.08;;;11.90;99.90;;;;;;5074872;28;20089;-59
2022/07/27 04:54:12;;;;;;;514.22;482.02;;;11.90;99.90;;;;;;5092729;28;20048;-59
2022/07/27 04:56:38;;;;;;;676.10;631.17;;;12.00;99.90;;;;;;5081249;28;20052;-60
2022/07/27 04:59:04;;;;;;;659.38;615.47;;;12.10;99.90;;;;;;5072628;28;20415;-60
2022/07/27 05:01:29;;;;;;;576.88;541.50;;;12.20;99.90;;;;;;5072261;28;20486;-60
2022/07/27 05:03:55;;;;;;;669.25;625.17;;;12.30;99.90;;;;;;5071022;28;20052;-60
2022/07/27 05:06:21;;;;;;;580.92;546.03;;;12.30;99.90;;;;;;5088938;28;20048;-60
2022/07/27 05:08:47;;;;;;;567.90;534.78;;;12.50;99.90;;;;;;5091899;28;20394;-60
2022/07/27 05:11:13;;;;;;;591.08;554.75;;;12.60;99.90;;;;;;5092280;28;20052;-60
2022/07/27 05:13:39;;;;;;;656.83;612.85;;;12.70;99.90;;;;;;5078180;28;20043;-60
2022/07/27 05:16:09;;;;;;;612.30;573.28;;;12.80;99.90;;;;;;5091784;28;20059;-60
2022/07/27 05:18:36;;;;;;;641.10;600.05;;;12.90;99.90;;;;;;5092267;28;20542;-60
2022/07/27 05:21:03;;;;;;;661.45;617.97;;;13.00;99.90;;;;;;5095723;28;20059;-60
2022/07/27 05:23:28;;;;;;;542.38;509.67;;;13.10;99.90;;;;;;5082819;28;20446;-60
2022/07/27 05:25:54;;;;;;;621.58;580.72;;;13.20;99.90;;;;;;5075628;28;20094;-60
2022/07/27 05:28:20;;;;;;;578.55;541.78;;;13.30;99.90;;;;;;5076091;28;20102;-60
2022/07/27 05:30:46;;;;;;;527.78;498.15;;;13.30;99.90;;;;;;5066975;28;20049;-60
2022/07/27 05:33:11;;;;;;;566.28;531.45;;;13.40;99.90;;;;;;5074799;28;20124;-60
2022/07/27 05:35:37;;;;;;;544.83;513.05;;;13.40;99.90;;;;;;5075767;28;20457;-60
2022/07/27 05:38:03;;;;;;;572.90;536.83;;;13.50;99.90;;;;;;5057181;28;20036;-60
2022/07/27 05:40:29;;;;;;;618.47;577.80;;;13.60;99.90;;;;;;5075086;28;20257;-60
2022/07/27 05:42:55;;;;;;;541.80;508.60;;;13.60;99.90;;;;;;5067726;28;20071;-60
2022/07/27 05:45:21;;;;;;;573.10;538.92;;;13.70;99.90;;;;;;5057066;28;20052;-60
2022/07/27 05:47:47;;;;;;;535.75;503.92;;;13.70;99.90;;;;;;5075434;28;20048;-60
2022/07/27 05:50:14;;;;;;;509.23;479.75;;;13.80;99.90;;;;;;5075114;28;20120;-60
2022/07/27 05:52:42;;;;;;;525.03;492.27;;;13.80;99.90;;;;;;5074728;28;20127;-60
2022/07/27 05:55:08;;;;;;;593.67;557.28;;;13.90;99.90;;;;;;5075149;28;20045;-60
2022/07/27 05:57:34;;;;;;;548.75;515.95;;;14.00;99.90;;;;;;5073695;28;20036;-60
2022/07/27 06:00:00;;;;;;;550.83;517.53;;;14.10;99.90;;;;;;5036740;28;20053;-60
2022/07/27 06:02:28;;;;;;;571.28;536.60;;;14.20;99.90;;;;;;5052355;28;20052;-60
2022/07/27 06:04:54;;;;;;;496.52;467.83;;;14.30;99.90;;;;;;5034725;28;20045;-59
2022/07/27 06:10:06;;;;;;;518.72;489.27;;;14.40;99.90;;;;;;5055019;28;20450;-60
2022/07/27 06:12:38;;;;;;;396.67;374.80;;;14.70;99.90;;;;;;5034536;28;20048;-60
2022/07/27 06:15:05;;;;;;;537.80;505.48;;;14.80;99.90;;;;;;5054727;28;20175;-62
2022/07/27 06:17:30;;;;;;;616.47;579.00;;;14.90;99.90;;;;;;5054734;28;20099;-60
2022/07/27 06:19:56;;;;;;;642.65;601.92;;;15.00;99.90;;;;;;5054203;28;20048;-59
2022/07/27 06:22:22;;;;;;;677.78;627.88;;;15.00;99.90;;;;;;5055065;28;20041;-60
2022/07/27 06:24:47;;;;;;;449.02;423.48;;;15.00;99.90;;;;;;5054139;28;20119;-60
2022/07/27 06:27:13;;;;;;;576.58;540.65;;;15.10;99.90;;;;;;5053861;28;20045;-60
2022/07/27 06:29:39;;;;;;;760.90;702.28;;;15.20;99.90;;;;;;5054883;28;20103;-60
2022/07/27 06:32:05;;;;;;;527.67;495.38;;;15.30;99.90;;;;;;5036319;28;20041;-60
2022/07/27 06:34:31;;;;;;;515.97;486.23;;;15.40;99.90;;;;;;5053927;28;20049;-60
2022/07/27 06:36:58;;;;;;;658.35;617.08;;;15.60;99.90;;;;;;5054777;28;20058;-60
2022/07/27 06:39:25;;;;;;;554.50;521.25;;;15.60;99.90;;;;;;5036480;28;20060;-60
2022/07/27 06:41:51;;;;;;;486.63;458.75;;;15.60;99.90;;;;;;5054946;28;20566;-60
2022/07/27 06:44:17;;;;;;;272.55;259.58;;;15.60;99.90;;;;;;5093487;28;20154;-60
2022/07/27 06:46:43;;;;;;;370.85;352.05;;;15.80;99.90;;;;;;5094372;28;20052;-60
2022/07/27 06:49:08;;;;;;;484.92;458.45;;;15.80;99.90;;;;;;5093770;28;20490;-60
2022/07/27 06:51:34;;;;;;;476.08;449.48;;;16.00;99.90;;;;;;5082639;28;20055;-60
2022/07/27 06:54:00;;;;;;;409.58;389.08;;;16.00;99.90;;;;;;5074013;28;20047;-60
2022/07/27 06:56:26;;;;;;;417.85;396.73;;;16.10;99.90;;;;;;5073689;28;20064;-60
2022/07/27 06:58:52;;;;;;;548.47;515.55;;;16.30;99.90;;;;;;5074352;28;20405;-60
2022/07/27 07:01:18;;;;;;;311.05;296.25;;;16.40;99.90;;;;;;5089460;28;20043;-60
2022/07/27 07:03:43;;;;;;;371.13;351.58;;;16.60;99.90;;;;;;5080688;28;20515;-60
2022/07/27 07:06:09;;;;;;;377.48;357.25;;;16.80;99.90;;;;;;5073937;28;20071;-60
2022/07/27 07:08:35;;;;;;;453.45;428.95;;;16.80;99.90;;;;;;5076219;28;20079;-60
2022/07/27 07:11:01;;;;;;;378.05;359.30;;;16.90;99.90;;;;;;5073309;28;20047;-60
2022/07/27 07:13:27;;;;;;;459.02;435.75;;;17.20;99.90;;;;;;5073056;28;20394;-60
2022/07/27 07:15:53;;;;;;;400.77;380.42;;;17.30;99.90;;;;;;5071995;28;20044;-60
2022/07/27 07:18:18;;;;;;;378.60;359.77;;;17.60;99.90;;;;;;5074529;28;20045;-60
2022/07/27 07:20:44;;;;;;;423.75;401.50;;;17.70;99.90;;;;;;5073128;28;20476;-60
2022/07/27 07:23:11;;;;;;;417.63;395.58;;;17.60;99.90;;;;;;5072526;28;20509;-60
2022/07/27 07:25:37;;;;;;;425.77;404.02;;;17.50;99.90;;;;;;5072449;28;20059;-60
2022/07/27 07:28:04;;;;;;;505.35;478.17;;;17.40;99.90;;;;;;5073195;28;20117;-60
2022/07/27 07:30:30;;;;;;;381.38;361.55;;;17.40;99.90;;;;;;5072770;28;20050;-60
2022/07/27 07:32:56;;;;;;;603.58;566.80;;;17.50;99.90;;;;;;5072248;28;20048;-60
2022/07/27 07:35:22;;;;;;;639.85;599.97;;;17.70;99.90;;;;;;5074340;28;20040;-60
2022/07/27 07:37:48;;;;;;;607.70;568.47;;;17.90;99.90;;;;;;5054304;28;20123;-60
2022/07/27 07:40:14;;;;;;;411.55;391.20;;;17.90;99.90;;;;;;5073015;28;20123;-60
2022/07/27 07:42:55;;;;;;;272.52;259.50;;;17.90;99.90;;;;;;5065908;28;20124;-60
2022/07/27 07:45:22;;;;;;;420.77;398.50;;;17.80;99.90;;;;;;5051318;28;20064;-60
2022/07/27 07:47:49;;;;;;;268.77;255.55;;;17.70;99.90;;;;;;5051511;28;20032;-60
2022/07/27 07:50:15;;;;;;;251.05;238.38;;;17.70;99.90;;;;;;5052610;28;20056;-60
2022/07/27 07:52:41;;;;;;;327.17;309.08;;;17.70;99.90;;;;;;5052422;28;20056;-60
2022/07/27 07:55:07;;;;;;;369.52;349.73;;;17.50;99.90;;;;;;5052245;28;20495;-60
2022/07/27 07:57:33;;;;;;;305.13;289.55;;;17.40;99.90;;;;;;5051836;28;20047;-60
2022/07/27 07:59:59;;;;;;;391.08;369.05;;;17.30;99.90;;;;;;5052462;28;20049;-60
2022/07/27 08:02:24;;;;;;;296.88;281.35;;;17.20;99.90;;;;;;5048585;28;20106;-60
2022/07/27 08:04:50;;;;;;;285.20;271.52;;;17.10;99.90;;;;;;5051586;28;20041;-60
2022/07/27 08:07:16;;;;;;;187.65;177.77;;;17.00;99.90;;;;;;5052377;28;20071;-60
2022/07/27 08:09:43;;;;;;;287.25;272.45;;;17.00;99.90;;;;;;5052431;28;20053;-60
2022/07/27 08:12:09;;;;;;;321.10;304.38;;;17.20;99.90;;;;;;5068699;28;20053;-60
2022/07/27 08:14:35;;;;;;;233.38;222.45;;;17.30;99.90;;;;;;5072985;28;20037;-60
2022/07/27 08:17:00;;;;;;;294.73;280.38;;;17.40;99.90;;;;;;5057079;28;20136;-60
2022/07/27 08:19:27;;;;;;;214.45;204.13;;;17.50;99.90;;;;;;5050936;28;20399;-60
2022/07/27 08:21:52;;;;;;;146.82;139.65;;;17.70;99.90;;;;;;5051996;28;20090;-60
2022/07/27 08:24:18;;;;;;;221.52;211.25;;;17.80;99.90;;;;;;5051904;28;20485;-60
2022/07/27 08:26:44;;;;;;;261.17;248.40;;;17.90;99.90;;;;;;5051145;28;20040;-60
2022/07/27 08:29:10;;;;;;;185.30;175.88;;;18.00;99.90;;;;;;5054460;28;20049;-59
2022/07/27 08:31:36;;;;;;;159.32;152.15;;;18.10;99.90;;;;;;5052300;28;20052;-60
2022/07/27 08:34:02;;;;;;;267.52;254.75;;;18.10;99.90;;;;;;5051761;28;20447;-59
2022/07/27 08:36:28;;;;;;;286.80;273.25;;;17.90;99.90;;;;;;5051770;28;20089;-59
2022/07/27 08:38:53;;;;;;;192.85;183.65;;;17.90;99.80;;;;;;5053576;28;20130;-59
2022/07/27 08:41:24;;;;;;;258.88;247.10;;;17.90;99.90;;;;;;5050925;28;20073;-60
2022/07/27 08:43:53;;;;;;;236.55;225.13;;;18.20;99.30;;;;;;5066791;28;20051;-60
2022/07/27 08:46:20;;;;;;;180.15;171.68;;;18.60;98.80;;;;;;5071493;28;20045;-60
2022/07/27 08:48:46;;;;;;;342.05;325.90;;;19.00;97.40;;;;;;5071351;28;20033;-60
2022/07/27 08:51:13;;;;;;;495.50;469.75;;;19.00;96.60;;;;;;5072498;28;20052;-60
2022/07/27 08:53:39;;;;;;;487.27;460.52;;;18.80;96.40;;;;;;5072946;28;20475;-60
2022/07/27 08:56:05;;;;;;;419.40;397.05;;;18.60;95.90;;;;;;5075769;28;20049;-60
2022/07/27 08:58:31;;;;;;;521.63;492.98;;;18.50;96.80;;;;;;5063283;28;20119;-59
2022/07/27 09:00:57;;;;;;;330.55;314.50;;;18.40;97.20;;;;;;5065733;28;20045;-60
2022/07/27 09:03:23;;;;;;;453.77;429.73;;;18.40;96.60;;;;;;5066120;28;20037;-60
2022/07/27 09:05:54;;;;;;;369.27;350.38;;;18.40;97.00;;;;;;5067294;28;20119;-60
2022/07/27 09:08:23;;;;;;;394.92;373.52;;;18.30;95.80;;;;;;5072426;28;20143;-60
2022/07/27 09:10:49;;;;;;;484.60;458.17;;;18.30;94.80;;;;;;5075737;28;20045;-60
2022/07/27 09:13:18;;;;;;;431.48;409.90;;;18.40;95.10;;;;;;5075029;28;20032;-60
2022/07/27 09:15:46;;;;;;;1999.90;999.90;;;18.60;95.10;;;;;;5073636;28;20052;-60
2022/07/27 09:18:21;;;;;;;385.50;366.60;;;19.00;94.20;;;;;;5075268;28;20083;-60
2022/07/27 09:21:08;;;;;;;397.83;378.40;;;19.30;95.10;;;;;;5075202;28;20119;-60
2022/07/27 09:23:34;;;;;;;373.58;355.58;;;19.80;94.50;;;;;;5073656;28;20037;-60
2022/07/27 09:26:20;;;;;;;362.35;344.98;;;19.90;93.00;;;;;;5075350;28;20059;-60
2022/07/27 09:28:46;;;;;;;549.65;518.35;;;19.70;93.80;;;;;;5074050;28;20059;-60
2022/07/27 09:31:14;;;;;;;487.98;462.48;;;19.80;93.10;;;;;;5073677;28;20056;-60
2022/07/27 09:33:46;;;;;;;425.75;403.38;;;19.90;93.00;;;;;;5073366;28;20086;-60
2022/07/27 09:36:13;;;;;;;470.27;444.70;;;19.90;91.90;;;;;;5074528;28;20102;-60
2022/07/27 09:38:54;;;;;;;419.92;398.20;;;19.80;91.40;;;;;;5074356;28;20037;-60
2022/07/27 09:41:21;;;;;;;407.60;386.73;;;19.70;91.90;;;;;;5072449;28;20094;-60
2022/07/27 09:43:53;;;;;;;559.35;527.28;;;19.60;91.80;;;;;;5056429;28;20591;-60
2022/07/27 09:46:30;;;;;;;622.95;585.90;;;19.50;92.50;;;;;;5074942;28;20049;-60
2022/07/27 09:48:56;;;;;;;443.00;419.55;;;19.50;93.30;;;;;;5072416;28;20064;-60
2022/07/27 09:51:24;;;;;;;606.80;571.17;;;19.50;91.40;;;;;;5073736;28;20079;-60
2022/07/27 09:53:51;;;;;;;562.13;530.55;;;19.60;92.10;;;;;;5074847;28;20596;-60
2022/07/27 09:56:27;;;;;;;488.25;461.77;;;19.70;91.80;;;;;;5074677;28;20049;-60
2022/07/27 09:58:56;;;;;;;535.22;505.65;;;19.80;90.20;;;;;;5070285;28;20394;-60
2022/07/27 10:01:24;;;;;;;582.15;548.45;;;19.80;91.50;;;;;;5074591;28;19923;-60
2022/07/27 10:03:53;;;;;;;538.47;508.50;;;19.80;90.80;;;;;;5074677;28;20120;-60
2022/07/27 10:06:21;;;;;;;507.52;479.73;;;19.90;91.00;;;;;;5069119;28;20045;-60
2022/07/27 10:08:48;;;;;;;567.97;536.10;;;20.00;91.00;;;;;;5063330;28;20051;-60
2022/07/27 10:11:16;;;;;;;556.58;526.08;;;20.00;90.40;;;;;;5063536;28;20067;-60
2022/07/27 10:13:42;;;;;;;587.70;553.60;;;19.80;90.90;;;;;;5057041;28;20163;-60
2022/07/27 10:16:14;;;;;;;487.63;461.60;;;19.80;90.60;;;;;;5074079;28;20052;-60
2022/07/27 10:18:56;;;;;;;546.83;516.20;;;19.90;91.30;;;;;;5073938;28;20121;-60
2022/07/27 10:21:24;;;;;;;611.17;574.85;;;20.20;90.80;;;;;;5074685;28;20049;-60
2022/07/27 10:23:57;;;;;;;547.33;516.75;;;20.10;90.70;;;;;;5074203;28;20590;-60
2022/07/27 10:26:23;;;;;;;645.50;605.75;;;20.10;91.00;;;;;;5071283;28;20098;-60
2022/07/27 10:28:50;;;;;;;513.28;484.52;;;20.10;91.70;;;;;;5052541;28;20052;-60
2022/07/27 10:31:18;;;;;;;593.45;558.60;;;20.40;90.80;;;;;;5064590;28;20049;-60
2022/07/27 10:33:48;;;;;;;482.38;456.30;;;20.40;90.20;;;;;;5064136;28;20425;-60
2022/07/27 10:36:18;;;;;;;506.35;478.92;;;20.40;90.80;;;;;;5074685;28;20059;-60
2022/07/27 10:38:46;;;;;;;489.65;463.05;;;20.50;90.00;;;;;;5074898;28;20115;-60
2022/07/27 10:41:22;;;;;;;573.05;540.72;;;20.60;89.40;;;;;;5072702;28;20105;-60
2022/07/27 10:43:50;;;;;;;528.15;498.55;;;20.60;89.10;;;;;;5038344;28;20064;-60
2022/07/27 10:46:21;;;;;;;468.88;443.90;;;20.60;90.40;;;;;;5044668;28;20399;-60
2022/07/27 10:48:47;;;;;;;511.48;483.27;;;20.80;89.10;;;;;;5054747;28;20091;-60
2022/07/27 10:51:15;;;;;;;594.28;558.88;;;21.20;89.50;;;;;;5046197;28;20053;-60
2022/07/27 10:53:42;;;;;;;617.33;581.28;;;21.30;88.40;;;;;;5053393;28;20048;-60
2022/07/27 10:56:09;;;;;;;464.50;439.88;;;21.30;86.50;;;;;;5033016;28;20119;-60
2022/07/27 10:58:34;;;;;;;608.97;573.17;;;21.10;85.00;;;;;;5045751;28;20052;-60
2022/07/27 11:01:02;;;;;;;576.78;543.00;;;21.00;87.70;;;;;;5047825;28;20053;-60
2022/07/27 11:03:32;;;;;;;648.45;609.30;;;21.20;84.70;;;;;;5044913;28;20033;-60
2022/07/27 11:06:06;;;;;;;525.47;497.27;;;21.40;87.40;;;;;;5053849;28;20045;-60
2022/07/27 11:08:34;;;;;;;571.72;539.80;;;21.50;84.10;;;;;;5044993;28;20505;-60
2022/07/27 11:11:01;;;;;;;601.30;566.70;;;21.50;82.60;;;;;;5054211;28;20049;-60
2022/07/27 11:13:28;;;;;;;582.40;548.67;;;21.30;82.80;;;;;;5053343;28;20052;-59
2022/07/27 11:16:00;;;;;;;620.42;584.88;;;21.00;84.50;;;;;;5052873;28;20439;-60
2022/07/27 11:18:29;;;;;;;611.25;575.42;;;20.50;87.40;;;;;;5073137;28;20055;-60
2022/07/27 11:21:13;;;;;;;668.22;627.10;;;20.20;89.20;;;;;;5073224;28;20141;-60
2022/07/27 11:23:39;;;;;;;649.33;609.83;;;20.00;90.70;;;;;;5073022;28;20393;-60
2022/07/27 11:26:05;;;;;;;707.38;662.80;;;19.80;90.00;;;;;;5057653;28;20127;-60
2022/07/27 11:28:32;;;;;;;638.70;601.00;;;19.60;90.80;;;;;;5051366;28;20051;-60
2022/07/27 11:30:59;;;;;;;630.78;592.20;;;19.60;91.60;;;;;;5052349;28;20091;-60
2022/07/27 11:33:26;;;;;;;613.95;577.97;;;19.70;91.20;;;;;;5053031;28;20125;-60
2022/07/27 11:35:55;;;;;;;614.22;577.88;;;20.10;90.90;;;;;;5067310;28;20131;-60
2022/07/27 11:38:21;;;;;;;599.85;566.00;;;20.30;90.80;;;;;;5073611;28;20044;-60
2022/07/27 11:40:48;;;;;;;;;;;20.10;91.40;;;;;;5073874;28;19924;-60
2022/07/27 11:43:31;;;;;;;;;;;19.90;91.90;;;;;;5082504;28;20007;-60
2022/07/27 11:46:09;;;;;;;;;;;19.70;92.10;;;;;;5093674;28;19936;-60
2022/07/27 11:48:34;;;;;;;;;;;19.60;92.40;;;;;;5094233;28;20003;-60
2022/07/27 11:51:00;;;;;;;;;;;19.50;92.30;;;;;;5093059;28;20344;-60
2022/07/27 11:53:27;;;;;;;;;;;19.50;93.10;;;;;;5075359;28;19978;-60
2022/07/27 11:55:53;;;;;;;;;;;19.60;93.30;;;;;;5073438;28;19925;-60
2022/07/27 11:58:19;;;;;;;;;;;19.60;94.10;;;;;;5072463;28;19925;-60
2022/07/27 12:00:45;;;;;;;;;;;19.80;93.20;;;;;;5073184;28;19974;-60
2022/07/27 12:03:19;;;;;;;;;;;20.00;94.20;;;;;;5064356;28;19925;-60
2022/07/27 12:05:55;;;;;;;;;;;20.30;93.70;;;;;;5052545;28;19929;-60
2022/07/27 12:08:22;;;;;;;;;;;20.50;93.50;;;;;;5053312;28;19925;-60
2022/07/27 12:10:57;;;;;;;;;;;20.50;93.40;;;;;;5067653;28;20294;-60
2022/07/27 12:13:31;;;;;;;;;;;20.70;93.30;;;;;;5055138;28;19976;-60
2022/07/27 12:15:57;;;;;;;;;;;21.30;92.00;;;;;;5054915;28;19975;-60
2022/07/27 12:18:22;;;;;;;;;;;21.90;88.40;;;;;;5066363;28;19924;-60
2022/07/27 12:20:50;;;;;;;;;;;21.50;89.40;;;;;;5067090;28;19928;-59
2022/07/27 12:23:16;;;;;;;;;;;21.10;89.50;;;;;;5063780;28;19931;-60